sensor_id;sensor_type;location;lat;lon;timestamp;pressure;altitude;pressure_sealevel;temperature;humidity
70900;BME280;67902;52.154;5.430;2023-03-04T00:01:48;102754.94;;;5.86;72.40
70900;BME280;67902;52.154;5.430;2023-03-04T00:04:16;102752.53;;;5.82;72.49
70900;BME280;67902;52.154;5.430;2023-03-04T00:06:43;102754.25;;;5.83;72.37
70900;BME280;67902;52.154;5.430;2023-03-04T00:09:09;102757.25;;;5.80;72.65
70900;BME280;67902;52.154;5.430;2023-03-04T00:11:35;102761.59;;;5.81;72.64
70900;BME280;67902;52.154;5.430;2023-03-04T00:14:02;102753.22;;;5.84;72.96
70900;BME280;67902;52.154;5.430;2023-03-04T00:16:28;102758.28;;;5.88;73.18
70900;BME280;67902;52.154;5.430;2023-03-04T00:18:56;102754.59;;;5.89;73.22
70900;BME280;67902;52.154;5.430;2023-03-04T00:21:22;102764.34;;;5.90;72.88
70900;BME280;67902;52.154;5.430;2023-03-04T00:23:49;102757.63;;;5.86;73.21
70900;BME280;67902;52.154;5.430;2023-03-04T00:26:16;102749.06;;;5.90;73.18
70900;BME280;67902;52.154;5.430;2023-03-04T00:28:43;102748.72;;;5.85;73.03
70900;BME280;67902;52.154;5.430;2023-03-04T00:31:10;102753.09;;;5.86;73.09
70900;BME280;67902;52.154;5.430;2023-03-04T00:33:37;102752.06;;;5.87;72.59
70900;BME280;67902;52.154;5.430;2023-03-04T00:36:05;102753.22;;;5.84;72.84
70900;BME280;67902;52.154;5.430;2023-03-04T00:38:32;102761.28;;;5.84;72.48
70900;BME280;67902;52.154;5.430;2023-03-04T00:40:58;102756.22;;;5.81;72.06
70900;BME280;67902;52.154;5.430;2023-03-04T00:43:25;102751.88;;;5.80;72.77
70900;BME280;67902;52.154;5.430;2023-03-04T00:45:51;102753.88;;;5.78;72.63
70900;BME280;67902;52.154;5.430;2023-03-04T00:48:18;102755.75;;;5.78;71.92
70900;BME280;67902;52.154;5.430;2023-03-04T00:50:44;102748.50;;;5.78;72.64
70900;BME280;67902;52.154;5.430;2023-03-04T00:53:10;102754.19;;;5.75;73.09
70900;BME280;67902;52.154;5.430;2023-03-04T00:55:37;102750.50;;;5.76;72.82
70900;BME280;67902;52.154;5.430;2023-03-04T00:58:03;102756.56;;;5.78;72.65
70900;BME280;67902;52.154;5.430;2023-03-04T01:00:30;102751.38;;;5.77;72.39
70900;BME280;67902;52.154;5.430;2023-03-04T01:02:56;102750.84;;;5.73;72.44
70900;BME280;67902;52.154;5.430;2023-03-04T01:05:22;102762.97;;;5.77;72.78
70900;BME280;67902;52.154;5.430;2023-03-04T01:07:49;102759.56;;;5.75;72.89
70900;BME280;67902;52.154;5.430;2023-03-04T01:10:16;102757.41;;;5.79;72.53
70900;BME280;67902;52.154;5.430;2023-03-04T01:12:45;102758.09;;;5.81;72.71
70900;BME280;67902;52.154;5.430;2023-03-04T01:15:15;102758.09;;;5.81;72.92
70900;BME280;67902;52.154;5.430;2023-03-04T01:17:42;102755.56;;;5.79;72.54
70900;BME280;67902;52.154;5.430;2023-03-04T01:20:12;102754.38;;;5.82;72.90
70900;BME280;67902;52.154;5.430;2023-03-04T01:22:38;102747.16;;;5.82;72.91
70900;BME280;67902;52.154;5.430;2023-03-04T01:25:05;102753.53;;;5.81;73.38
70900;BME280;67902;52.154;5.430;2023-03-04T01:27:32;102746.50;;;5.80;73.47
70900;BME280;67902;52.154;5.430;2023-03-04T01:29:58;102744.81;;;5.79;74.09
70900;BME280;67902;52.154;5.430;2023-03-04T01:32:24;102741.28;;;5.79;73.90
70900;BME280;67902;52.154;5.430;2023-03-04T01:34:51;102737.25;;;5.75;74.22
70900;BME280;67902;52.154;5.430;2023-03-04T01:37:17;102738.06;;;5.75;74.06
70900;BME280;67902;52.154;5.430;2023-03-04T01:39:44;102731.03;;;5.74;73.98
70900;BME280;67902;52.154;5.430;2023-03-04T01:42:19;102726.50;;;5.75;73.72
70900;BME280;67902;52.154;5.430;2023-03-04T01:44:47;102729.00;;;5.76;74.08
70900;BME280;67902;52.154;5.430;2023-03-04T01:47:14;102728.34;;;5.74;73.90
70900;BME280;67902;52.154;5.430;2023-03-04T01:49:41;102720.28;;;5.74;73.96
70900;BME280;67902;52.154;5.430;2023-03-04T01:52:11;102717.25;;;5.69;74.07
70900;BME280;67902;52.154;5.430;2023-03-04T01:54:39;102716.22;;;5.70;73.94
70900;BME280;67902;52.154;5.430;2023-03-04T01:57:25;102718.06;;;5.70;73.92
70900;BME280;67902;52.154;5.430;2023-03-04T02:02:52;102702.78;;;5.70;73.58
70900;BME280;67902;52.154;5.430;2023-03-04T02:05:20;102709.19;;;5.69;73.08
70900;BME280;67902;52.154;5.430;2023-03-04T02:07:48;102698.06;;;5.64;71.50
70900;BME280;67902;52.154;5.430;2023-03-04T02:10:15;102693.41;;;5.66;71.58
70900;BME280;67902;52.154;5.430;2023-03-04T02:12:41;102696.94;;;5.67;71.32
70900;BME280;67902;52.154;5.430;2023-03-04T02:15:09;102690.53;;;5.68;71.18
70900;BME280;67902;52.154;5.430;2023-03-04T02:17:36;102692.38;;;5.67;71.22
70900;BME280;67902;52.154;5.430;2023-03-04T02:20:08;102693.22;;;5.68;71.40
70900;BME280;67902;52.154;5.430;2023-03-04T02:22:45;102681.63;;;5.67;71.55
70900;BME280;67902;52.154;5.430;2023-03-04T02:25:20;102689.03;;;5.65;71.85
70900;BME280;67902;52.154;5.430;2023-03-04T02:27:47;102688.34;;;5.63;71.84
70900;BME280;67902;52.154;5.430;2023-03-04T02:30:15;102681.47;;;5.61;72.28
70900;BME280;67902;52.154;5.430;2023-03-04T02:32:41;102683.13;;;5.62;72.12
70900;BME280;67902;52.154;5.430;2023-03-04T02:35:13;102681.47;;;5.61;71.96
70900;BME280;67902;52.154;5.430;2023-03-04T02:37:45;102675.06;;;5.62;72.38
70900;BME280;67902;52.154;5.430;2023-03-04T02:40:20;102680.28;;;5.63;72.25
70900;BME280;67902;52.154;5.430;2023-03-04T02:42:48;102675.41;;;5.59;72.63
70900;BME280;67902;52.154;5.430;2023-03-04T02:48:01;102672.22;;;5.55;72.17
70900;BME280;67902;52.154;5.430;2023-03-04T02:50:32;102666.16;;;5.53;72.32
70900;BME280;67902;52.154;5.430;2023-03-04T02:52:59;102672.56;;;5.52;72.30
70900;BME280;67902;52.154;5.430;2023-03-04T02:55:25;102665.50;;;5.51;72.63
70900;BME280;67902;52.154;5.430;2023-03-04T02:57:51;102660.44;;;5.48;72.40
70900;BME280;67902;52.154;5.430;2023-03-04T03:00:18;102660.44;;;5.48;72.20
70900;BME280;67902;52.154;5.430;2023-03-04T03:02:45;102661.97;;;5.51;71.30
70900;BME280;67902;52.154;5.430;2023-03-04T03:05:11;102658.63;;;5.49;71.65
70900;BME280;67902;52.154;5.430;2023-03-04T03:07:41;102656.09;;;5.47;71.41
70900;BME280;67902;52.154;5.430;2023-03-04T03:10:08;102658.94;;;5.46;71.38
70900;BME280;67902;52.154;5.430;2023-03-04T03:12:35;102653.41;;;5.47;71.18
70900;BME280;67902;52.154;5.430;2023-03-04T03:15:01;102651.41;;;5.49;71.74
70900;BME280;67902;52.154;5.430;2023-03-04T03:17:28;102648.72;;;5.49;71.57
70900;BME280;67902;52.154;5.430;2023-03-04T03:19:54;102643.34;;;5.49;71.92
70900;BME280;67902;52.154;5.430;2023-03-04T03:22:21;102646.03;;;5.49;71.41
70900;BME280;67902;52.154;5.430;2023-03-04T03:24:47;102644.34;;;5.48;71.63
70900;BME280;67902;52.154;5.430;2023-03-04T03:27:13;102648.03;;;5.47;71.85
70900;BME280;67902;52.154;5.430;2023-03-04T03:29:40;102641.50;;;5.50;72.02
70900;BME280;67902;52.154;5.430;2023-03-04T03:32:06;102633.09;;;5.53;71.91
70900;BME280;67902;52.154;5.430;2023-03-04T03:34:33;102629.56;;;5.52;72.22
70900;BME280;67902;52.154;5.430;2023-03-04T03:36:59;102634.25;;;5.50;71.81
70900;BME280;67902;52.154;5.430;2023-03-04T03:39:26;102640.47;;;5.51;72.15
70900;BME280;67902;52.154;5.430;2023-03-04T03:41:52;102635.28;;;5.49;72.07
70900;BME280;67902;52.154;5.430;2023-03-04T03:44:19;102634.25;;;5.50;72.29
70900;BME280;67902;52.154;5.430;2023-03-04T03:46:45;102638.13;;;5.48;72.53
70900;BME280;67902;52.154;5.430;2023-03-04T03:49:14;102639.81;;;5.49;72.93
70900;BME280;67902;52.154;5.430;2023-03-04T03:51:42;102637.31;;;5.47;73.23
70900;BME280;67902;52.154;5.430;2023-03-04T03:54:09;102638.97;;;5.48;72.97
70900;BME280;67902;52.154;5.430;2023-03-04T03:56:35;102646.34;;;5.46;73.58
70900;BME280;67902;52.154;5.430;2023-03-04T03:59:01;102642.31;;;5.42;74.07
70900;BME280;67902;52.154;5.430;2023-03-04T04:01:28;102640.97;;;5.46;74.27
70900;BME280;67902;52.154;5.430;2023-03-04T04:03:54;102637.31;;;5.47;74.70
70900;BME280;67902;52.154;5.430;2023-03-04T04:06:21;102635.94;;;5.43;75.35
70900;BME280;67902;52.154;5.430;2023-03-04T04:08:47;102632.59;;;5.41;75.28
70900;BME280;67902;52.154;5.430;2023-03-04T04:11:14;102647.53;;;5.44;75.55
70900;BME280;67902;52.154;5.430;2023-03-04T04:13:40;102646.69;;;5.43;75.91
70900;BME280;67902;52.154;5.430;2023-03-04T04:16:08;102648.72;;;5.41;75.99
70900;BME280;67902;52.154;5.430;2023-03-04T04:18:35;102645.00;;;5.42;76.39
70900;BME280;67902;52.154;5.430;2023-03-04T04:21:03;102642.31;;;5.42;76.16
70900;BME280;67902;52.154;5.430;2023-03-04T04:23:29;102645.69;;;5.44;75.35
70900;BME280;67902;52.154;5.430;2023-03-04T04:25:56;102643.00;;;5.44;75.87
70900;BME280;67902;52.154;5.430;2023-03-04T04:28:23;102644.66;;;5.45;75.98
70900;BME280;67902;52.154;5.430;2023-03-04T04:30:50;102648.38;;;5.44;76.01
70900;BME280;67902;52.154;5.430;2023-03-04T04:33:16;102650.03;;;5.45;75.39
70900;BME280;67902;52.154;5.430;2023-03-04T04:35:43;102650.88;;;5.46;75.28
70900;BME280;67902;52.154;5.430;2023-03-04T04:38:09;102652.06;;;5.43;75.71
70900;BME280;67902;52.154;5.430;2023-03-04T04:40:36;102650.03;;;5.45;75.60
70900;BME280;67902;52.154;5.430;2023-03-04T04:43:03;102654.41;;;5.46;75.49
70900;BME280;67902;52.154;5.430;2023-03-04T04:45:29;102647.34;;;5.45;75.34
70900;BME280;67902;52.154;5.430;2023-03-04T04:47:55;102644.31;;;5.40;73.54
70900;BME280;67902;52.154;5.430;2023-03-04T04:50:23;102648.19;;;5.38;74.04
70900;BME280;67902;52.154;5.430;2023-03-04T04:52:50;102652.03;;;5.35;74.19
70900;BME280;67902;52.154;5.430;2023-03-04T04:55:16;102650.22;;;5.36;74.33
70900;BME280;67902;52.154;5.430;2023-03-04T04:57:45;102650.03;;;5.37;74.07
70900;BME280;67902;52.154;5.430;2023-03-04T05:00:12;102652.72;;;5.37;74.32
70900;BME280;67902;52.154;5.430;2023-03-04T05:02:39;102645.31;;;5.39;73.96
70900;BME280;67902;52.154;5.430;2023-03-04T05:05:06;102645.31;;;5.39;73.70
70900;BME280;67902;52.154;5.430;2023-03-04T05:07:33;102659.44;;;5.41;74.00
70900;BME280;67902;52.154;5.430;2023-03-04T05:10:00;102653.75;;;5.44;74.17
70900;BME280;67902;52.154;5.430;2023-03-04T05:12:26;102639.13;;;5.47;74.04
70900;BME280;67902;52.154;5.430;2023-03-04T05:14:53;102641.97;;;5.45;74.19
70900;BME280;67902;52.154;5.430;2023-03-04T05:17:19;102641.81;;;5.47;74.33
70900;BME280;67902;52.154;5.430;2023-03-04T05:19:45;102645.50;;;5.46;73.86
70900;BME280;67902;52.154;5.430;2023-03-04T05:22:12;102650.03;;;5.45;74.21
70900;BME280;67902;52.154;5.430;2023-03-04T05:24:41;102642.16;;;5.44;74.30
70900;BME280;67902;52.154;5.430;2023-03-04T05:27:10;102641.13;;;5.45;74.67
70900;BME280;67902;52.154;5.430;2023-03-04T05:29:36;102644.66;;;5.45;74.90
70900;BME280;67902;52.154;5.430;2023-03-04T05:32:03;102640.97;;;5.46;74.56
70900;BME280;67902;52.154;5.430;2023-03-04T05:34:29;102648.03;;;5.47;75.08
70900;BME280;67902;52.154;5.430;2023-03-04T05:36:56;102645.34;;;5.47;74.66
70900;BME280;67902;52.154;5.430;2023-03-04T05:39:22;102649.56;;;5.50;74.87
70900;BME280;67902;52.154;5.430;2023-03-04T05:41:48;102648.38;;;5.52;75.32
70900;BME280;67902;52.154;5.430;2023-03-04T05:44:15;102654.09;;;5.49;75.35
70900;BME280;67902;52.154;5.430;2023-03-04T05:46:41;102646.19;;;5.48;75.93
70900;BME280;67902;52.154;5.430;2023-03-04T05:49:08;102650.72;;;5.47;75.77
70900;BME280;67902;52.154;5.430;2023-03-04T05:51:34;102655.75;;;5.50;75.70
70900;BME280;67902;52.154;5.430;2023-03-04T05:54:01;102645.19;;;5.49;76.22
70900;BME280;67902;52.154;5.430;2023-03-04T05:56:27;102650.03;;;5.45;76.13
70900;BME280;67902;52.154;5.430;2023-03-04T05:58:58;102648.84;;;5.48;76.96
70900;BME280;67902;52.154;5.430;2023-03-04T06:01:25;102643.66;;;5.46;76.91
70900;BME280;67902;52.154;5.430;2023-03-04T06:03:51;102649.03;;;5.46;77.32
70900;BME280;67902;52.154;5.430;2023-03-04T06:06:18;102646.50;;;5.45;76.77
70900;BME280;67902;52.154;5.430;2023-03-04T06:08:44;102645.69;;;5.44;77.01
70900;BME280;67902;52.154;5.430;2023-03-04T06:11:10;102644.00;;;5.43;77.13
70900;BME280;67902;52.154;5.430;2023-03-04T06:13:39;102651.06;;;5.44;77.71
70900;BME280;67902;52.154;5.430;2023-03-04T06:16:06;102650.03;;;5.45;77.45
70900;BME280;67902;52.154;5.430;2023-03-04T06:18:32;102647.53;;;5.44;77.15
70900;BME280;67902;52.154;5.430;2023-03-04T06:21:01;102648.38;;;5.44;77.98
70900;BME280;67902;52.154;5.430;2023-03-04T06:23:29;102646.69;;;5.43;77.29
70900;BME280;67902;52.154;5.430;2023-03-04T06:25:58;102653.75;;;5.44;77.52
70900;BME280;67902;52.154;5.430;2023-03-04T06:28:26;102648.38;;;5.44;77.97
70900;BME280;67902;52.154;5.430;2023-03-04T06:30:54;102651.72;;;5.46;77.95
70900;BME280;67902;52.154;5.430;2023-03-04T06:33:21;102646.34;;;5.46;78.16
70900;BME280;67902;52.154;5.430;2023-03-04T06:35:47;102649.03;;;5.46;78.43
70900;BME280;67902;52.154;5.430;2023-03-04T06:38:14;102654.22;;;5.48;77.85
70900;BME280;67902;52.154;5.430;2023-03-04T06:40:40;102655.06;;;5.48;78.12
70900;BME280;67902;52.154;5.430;2023-03-04T06:43:07;102666.66;;;5.49;78.20
70900;BME280;67902;52.154;5.430;2023-03-04T06:45:33;102663.66;;;5.52;78.58
70900;BME280;67902;52.154;5.430;2023-03-04T06:48:00;102654.75;;;5.51;78.77
70900;BME280;67902;52.154;5.430;2023-03-04T06:50:26;102659.13;;;5.52;79.19
70900;BME280;67902;52.154;5.430;2023-03-04T06:52:55;102663.47;;;5.53;78.84
70900;BME280;67902;52.154;5.430;2023-03-04T06:55:22;102665.50;;;5.51;78.82
70900;BME280;67902;52.154;5.430;2023-03-04T06:57:48;102659.47;;;5.49;78.35
70900;BME280;67902;52.154;5.430;2023-03-04T07:00:15;102663.31;;;5.47;78.85
70900;BME280;67902;52.154;5.430;2023-03-04T07:02:42;102665.81;;;5.48;78.53
70900;BME280;67902;52.154;5.430;2023-03-04T07:05:10;102666.00;;;5.55;78.74
70900;BME280;67902;52.154;5.430;2023-03-04T07:07:36;102671.91;;;5.58;78.46
70900;BME280;67902;52.154;5.430;2023-03-04T07:10:03;102671.22;;;5.64;78.38
70900;BME280;67902;52.154;5.430;2023-03-04T07:12:30;102675.44;;;5.67;79.05
70900;BME280;67902;52.154;5.430;2023-03-04T07:14:56;102671.91;;;5.66;79.80
70900;BME280;67902;52.154;5.430;2023-03-04T07:17:22;102669.38;;;5.57;79.99
70900;BME280;67902;52.154;5.430;2023-03-04T07:19:49;102659.47;;;5.57;80.52
70900;BME280;67902;52.154;5.430;2023-03-04T07:22:15;102672.56;;;5.68;80.43
70900;BME280;67902;52.154;5.430;2023-03-04T07:24:42;102671.72;;;5.84;79.90
70900;BME280;67902;52.154;5.430;2023-03-04T07:27:11;102673.44;;;5.93;79.65
70900;BME280;67902;52.154;5.430;2023-03-04T07:29:39;102672.94;;;6.06;79.88
70900;BME280;67902;52.154;5.430;2023-03-04T07:32:08;102678.63;;;6.27;79.14
70900;BME280;67902;52.154;5.430;2023-03-04T07:34:35;102678.78;;;6.33;78.64
70900;BME280;67902;52.154;5.430;2023-03-04T07:37:02;102672.84;;;6.46;78.10
70900;BME280;67902;52.154;5.430;2023-03-04T07:39:29;102677.25;;;6.47;78.57
70900;BME280;67902;52.154;5.430;2023-03-04T07:41:55;102681.28;;;6.51;78.53
70900;BME280;67902;52.154;5.430;2023-03-04T07:44:22;102677.06;;;6.57;78.44
70900;BME280;67902;52.154;5.430;2023-03-04T07:46:48;102676.53;;;6.61;78.28
70900;BME280;67902;52.154;5.430;2023-03-04T07:49:14;102680.19;;;6.76;78.10
70900;BME280;67902;52.154;5.430;2023-03-04T07:51:41;102685.50;;;6.92;77.67
70900;BME280;67902;52.154;5.430;2023-03-04T07:54:09;102682.72;;;7.09;77.48
70900;BME280;67902;52.154;5.430;2023-03-04T07:56:35;102688.78;;;7.11;76.14
70900;BME280;67902;52.154;5.430;2023-03-04T07:59:02;102685.78;;;7.06;76.85
70900;BME280;67902;52.154;5.430;2023-03-04T08:01:31;102685.56;;;7.15;77.13
70900;BME280;67902;52.154;5.430;2023-03-04T08:03:58;102684.88;;;7.21;76.34
70900;BME280;67902;52.154;5.430;2023-03-04T08:06:25;102687.00;;;7.26;76.50
70900;BME280;67902;52.154;5.430;2023-03-04T08:08:57;102691.91;;;7.22;77.27
70900;BME280;67902;52.154;5.430;2023-03-04T08:11:25;102692.22;;;7.27;76.47
70900;BME280;67902;52.154;5.430;2023-03-04T08:13:52;102697.44;;;7.29;75.87
70900;BME280;67902;52.154;5.430;2023-03-04T08:16:22;102699.84;;;7.24;76.65
70900;BME280;67902;52.154;5.430;2023-03-04T08:18:52;102709.06;;;7.29;77.43
70900;BME280;67902;52.154;5.430;2023-03-04T08:21:20;102702.56;;;7.16;77.88
70900;BME280;67902;52.154;5.430;2023-03-04T08:23:48;102704.28;;;7.09;78.37
70900;BME280;67902;52.154;5.430;2023-03-04T08:26:21;102697.19;;;7.08;78.93
70900;BME280;67902;52.154;5.430;2023-03-04T08:28:48;102703.31;;;7.32;78.38
70900;BME280;67902;52.154;5.430;2023-03-04T08:31:15;102699.88;;;7.69;77.28
70900;BME280;67902;52.154;5.430;2023-03-04T08:33:42;102696.50;;;7.67;77.35
70900;BME280;67902;52.154;5.430;2023-03-04T08:36:13;102695.22;;;7.63;77.59
70900;BME280;67902;52.154;5.430;2023-03-04T08:38:40;102702.53;;;7.77;76.72
70900;BME280;67902;52.154;5.430;2023-03-04T08:41:06;102701.41;;;7.86;76.16
70900;BME280;67902;52.154;5.430;2023-03-04T08:43:33;102702.41;;;7.93;76.64
70900;BME280;67902;52.154;5.430;2023-03-04T08:46:00;102707.56;;;7.80;77.35
70900;BME280;67902;52.154;5.430;2023-03-04T08:48:27;102696.28;;;7.77;77.27
70900;BME280;67902;52.154;5.430;2023-03-04T08:50:53;102702.88;;;7.74;77.70
70900;BME280;67902;52.154;5.430;2023-03-04T08:53:20;102700.00;;;7.76;78.10
70900;BME280;67902;52.154;5.430;2023-03-04T08:55:47;102701.91;;;7.90;77.63
70900;BME280;67902;52.154;5.430;2023-03-04T08:58:14;102703.53;;;7.99;77.63
70900;BME280;67902;52.154;5.430;2023-03-04T09:00:42;102702.41;;;7.93;77.95
70900;BME280;67902;52.154;5.430;2023-03-04T09:03:11;102698.34;;;8.12;78.38
70900;BME280;67902;52.154;5.430;2023-03-04T09:05:37;102698.91;;;8.30;76.96
70900;BME280;67902;52.154;5.430;2023-03-04T09:08:04;102692.00;;;8.28;76.77
70900;BME280;67902;52.154;5.430;2023-03-04T09:10:31;102693.56;;;9.81;75.02
70900;BME280;67902;52.154;5.430;2023-03-04T09:12:58;102686.41;;;10.44;71.07
70900;BME280;67902;52.154;5.430;2023-03-04T09:15:25;102688.69;;;10.40;70.68
70900;BME280;67902;52.154;5.430;2023-03-04T09:17:51;102684.84;;;9.86;71.22
70900;BME280;67902;52.154;5.430;2023-03-04T09:20:17;102688.94;;;9.54;72.68
70900;BME280;67902;52.154;5.430;2023-03-04T09:22:44;102689.00;;;9.25;73.24
70900;BME280;67902;52.154;5.430;2023-03-04T09:25:13;102692.28;;;9.06;72.94
70900;BME280;67902;52.154;5.430;2023-03-04T09:27:40;102686.41;;;9.17;73.94
70900;BME280;67902;52.154;5.430;2023-03-04T09:30:08;102692.47;;;9.04;73.87
70900;BME280;67902;52.154;5.430;2023-03-04T09:32:35;102692.31;;;8.91;73.92
70900;BME280;67902;52.154;5.430;2023-03-04T09:35:02;102698.28;;;8.72;74.92
70900;BME280;67902;52.154;5.430;2023-03-04T09:37:29;102695.94;;;8.69;74.82
70900;BME280;67902;52.154;5.430;2023-03-04T09:39:55;102685.06;;;8.77;75.17
70900;BME280;67902;52.154;5.430;2023-03-04T09:42:36;102687.53;;;9.08;74.46
70900;BME280;67902;52.154;5.430;2023-03-04T09:45:05;102680.84;;;9.04;73.94
70900;BME280;67902;52.154;5.430;2023-03-04T09:47:33;102676.47;;;8.88;74.17
70900;BME280;67902;52.154;5.430;2023-03-04T09:50:06;102678.75;;;9.20;73.96
70900;BME280;67902;52.154;5.430;2023-03-04T09:55:39;102670.66;;;10.26;71.16
70900;BME280;67902;52.154;5.430;2023-03-04T10:00:54;102668.84;;;10.68;68.91
70900;BME280;67902;52.154;5.430;2023-03-04T10:03:53;102662.03;;;10.16;69.49
70900;BME280;67902;52.154;5.430;2023-03-04T10:06:20;102658.25;;;9.89;70.45
70900;BME280;67902;52.154;5.430;2023-03-04T10:08:58;102661.28;;;9.80;71.07
70900;BME280;67902;52.154;5.430;2023-03-04T10:11:31;102660.66;;;9.57;71.57
70900;BME280;67902;52.154;5.430;2023-03-04T10:16:52;102660.41;;;9.01;72.78
70900;BME280;67902;52.154;5.430;2023-03-04T10:22:40;102656.38;;;9.69;72.18
70900;BME280;67902;52.154;5.430;2023-03-04T10:25:24;102642.66;;;11.48;70.67
70900;BME280;67902;52.154;5.430;2023-03-04T10:27:55;102642.41;;;13.63;61.28
70900;BME280;67902;52.154;5.430;2023-03-04T10:33:32;102633.13;;;13.95;58.41
70900;BME280;67902;52.154;5.430;2023-03-04T10:38:39;102640.97;;;13.85;58.06
70900;BME280;67902;52.154;5.430;2023-03-04T10:41:26;102648.72;;;12.62;60.38
70900;BME280;67902;52.154;5.430;2023-03-04T10:46:38;102645.25;;;10.62;65.39
70900;BME280;67902;52.154;5.430;2023-03-04T10:49:05;102650.72;;;10.34;66.80
70900;BME280;67902;52.154;5.430;2023-03-04T10:51:41;102641.53;;;10.63;66.89
70900;BME280;67902;52.154;5.430;2023-03-04T10:54:39;102642.06;;;10.86;65.91
70900;BME280;67902;52.154;5.430;2023-03-04T10:57:15;102639.25;;;10.73;65.67
70900;BME280;67902;52.154;5.430;2023-03-04T11:02:40;102640.44;;;9.74;67.96
70900;BME280;67902;52.154;5.430;2023-03-04T11:05:17;102639.41;;;9.54;68.90
70900;BME280;67902;52.154;5.430;2023-03-04T11:07:52;102645.91;;;9.23;70.84
70900;BME280;67902;52.154;5.430;2023-03-04T11:10:41;102647.41;;;8.90;73.24
70900;BME280;67902;52.154;5.430;2023-03-04T11:13:12;102644.63;;;8.69;75.53
70900;BME280;67902;52.154;5.430;2023-03-04T11:16:04;102649.09;;;8.33;77.72
70900;BME280;67902;52.154;5.430;2023-03-04T11:18:43;102654.91;;;8.07;79.60
70900;BME280;67902;52.154;5.430;2023-03-04T11:21:21;102650.84;;;7.88;81.22
70900;BME280;67902;52.154;5.430;2023-03-04T11:23:56;102652.44;;;7.83;81.79
70900;BME280;67902;52.154;5.430;2023-03-04T11:27:08;102655.44;;;7.65;82.17
70900;BME280;67902;52.154;5.430;2023-03-04T11:32:27;102651.09;;;7.79;83.49
70900;BME280;67902;52.154;5.430;2023-03-04T11:37:59;102632.63;;;8.42;82.32
70900;BME280;67902;52.154;5.430;2023-03-04T11:40:46;102632.13;;;8.97;80.05
70900;BME280;67902;52.154;5.430;2023-03-04T11:43:24;102629.91;;;9.85;77.98
70900;BME280;67902;52.154;5.430;2023-03-04T11:51:44;102605.78;;;14.51;62.42
70900;BME280;67902;52.154;5.430;2023-03-04T11:54:22;102614.19;;;13.82;62.13
70900;BME280;67902;52.154;5.430;2023-03-04T11:56:58;102609.41;;;14.21;61.48
70900;BME280;67902;52.154;5.430;2023-03-04T11:59:42;102604.09;;;14.69;62.88
70900;BME280;67902;52.154;5.430;2023-03-04T12:02:14;102583.16;;;15.29;58.89
70900;BME280;67902;52.154;5.430;2023-03-04T12:07:54;102605.13;;;11.58;64.85
70900;BME280;67902;52.154;5.430;2023-03-04T12:13:29;102605.59;;;10.13;67.14
70900;BME280;67902;52.154;5.430;2023-03-04T12:25:24;102603.34;;;9.25;71.97
70900;BME280;67902;52.154;5.430;2023-03-04T12:28:16;102601.16;;;9.14;71.94
70900;BME280;67902;52.154;5.430;2023-03-04T12:30:54;102590.34;;;9.14;71.62
70900;BME280;67902;52.154;5.430;2023-03-04T12:36:18;102589.19;;;9.45;69.08
70900;BME280;67902;52.154;5.430;2023-03-04T12:41:33;102583.56;;;10.57;66.08
70900;BME280;67902;52.154;5.430;2023-03-04T12:44:15;102575.03;;;11.27;63.85
70900;BME280;67902;52.154;5.430;2023-03-04T12:49:37;102576.16;;;11.79;61.57
70900;BME280;67902;52.154;5.430;2023-03-04T12:52:12;102573.16;;;12.26;61.81
70900;BME280;67902;52.154;5.430;2023-03-04T12:54:44;102570.47;;;12.00;59.24
70900;BME280;67902;52.154;5.430;2023-03-04T12:57:18;102565.88;;;11.28;61.67
70900;BME280;67902;52.154;5.430;2023-03-04T13:05:38;102566.19;;;9.55;66.12
70900;BME280;67902;52.154;5.430;2023-03-04T13:08:10;102574.03;;;9.08;69.44
70900;BME280;67902;52.154;5.430;2023-03-04T13:10:40;102575.41;;;8.83;69.92
70900;BME280;67902;52.154;5.430;2023-03-04T13:13:34;102571.00;;;8.46;70.13
70900;BME280;67902;52.154;5.430;2023-03-04T13:16:26;102569.97;;;8.17;72.35
70900;BME280;67902;52.154;5.430;2023-03-04T13:18:52;102576.31;;;8.25;73.21
70900;BME280;67902;52.154;5.430;2023-03-04T13:21:24;102568.97;;;8.33;72.74
70900;BME280;67902;52.154;5.430;2023-03-04T13:23:52;102564.22;;;8.35;73.30
70900;BME280;67902;52.154;5.430;2023-03-04T13:26:20;102563.22;;;8.36;72.37
70900;BME280;67902;52.154;5.430;2023-03-04T13:28:53;102569.78;;;8.04;75.09
70900;BME280;67902;52.154;5.430;2023-03-04T13:31:24;102570.13;;;7.87;75.85
70900;BME280;67902;52.154;5.430;2023-03-04T13:33:54;102563.06;;;8.00;75.87
70900;BME280;67902;52.154;5.430;2023-03-04T13:36:30;102561.69;;;8.34;75.91
70900;BME280;67902;52.154;5.430;2023-03-04T13:39:22;102553.94;;;8.60;74.91
70900;BME280;67902;52.154;5.430;2023-03-04T13:41:51;102551.31;;;8.81;72.18
70900;BME280;67902;52.154;5.430;2023-03-04T13:44:54;102549.59;;;9.16;71.25
70900;BME280;67902;52.154;5.430;2023-03-04T13:47:29;102550.69;;;9.98;69.67
70900;BME280;67902;52.154;5.430;2023-03-04T13:50:29;102545.75;;;10.83;66.84
70900;BME280;67902;52.154;5.430;2023-03-04T13:53:21;102537.28;;;11.58;63.00
70900;BME280;67902;52.154;5.430;2023-03-04T13:56:17;102546.81;;;10.41;64.33
70900;BME280;67902;52.154;5.430;2023-03-04T13:58:48;102551.97;;;9.47;64.26
70900;BME280;67902;52.154;5.430;2023-03-04T14:01:27;102538.69;;;8.88;65.45
70900;BME280;67902;52.154;5.430;2023-03-04T14:03:54;102532.47;;;8.52;66.32
70900;BME280;67902;52.154;5.430;2023-03-04T14:06:25;102530.34;;;8.47;65.38
70900;BME280;67902;52.154;5.430;2023-03-04T14:08:53;102527.28;;;8.36;65.43
70900;BME280;67902;52.154;5.430;2023-03-04T14:11:34;102529.97;;;8.36;66.08
70900;BME280;67902;52.154;5.430;2023-03-04T14:14:06;102526.59;;;8.34;65.98
70900;BME280;67902;52.154;5.430;2023-03-04T14:16:39;102532.00;;;8.34;65.58
70900;BME280;67902;52.154;5.430;2023-03-04T14:19:14;102533.88;;;8.18;65.90
70900;BME280;67902;52.154;5.430;2023-03-04T14:21:45;102530.16;;;8.20;66.57
70900;BME280;67902;52.154;5.430;2023-03-04T14:24:15;102527.81;;;8.16;65.96